Préparation du vol

Réserver un ULM chez EFU                     Découvrir nos appareils                     Coordonnées de l'école

Available data for LFPN from the past hour

METAR
LFPN 271900Z AUTO 31012KT 9999 FEW033/// BKN047/// BKN140/// 05/M00 Q1012 NOSIG
LFPN 271830Z AUTO 31012KT 9999 BKN039 OVC047 05/M00 Q1011 NOSIG
TAF
TAF LFPN 271700Z 2718/2803 30015G25KT 9999 SCT025 BECMG 2718/2721 26007KT CAVOK BECMG 2802/2803 18005KT

Pour avoir des informations détaillée sur la météo à venir vous pouvez consulter Aeroweb

prevision des pluies

Nota : Heuro locale = heure CET

[table “3” not found /]

OLIVIA

Outil en Ligne Intégré de Visualisation d'Informations Aéronautiques

OLIVIA